createdAt,value
2018-07-24T00:00:00.676Z,996.56
2018-07-24T00:01:10.756Z,996.53
2018-07-24T00:02:20.852Z,996.51
2018-07-24T00:03:30.941Z,996.56
2018-07-24T00:04:41.006Z,996.55
2018-07-24T00:05:50.808Z,996.58
2018-07-24T00:07:00.623Z,996.56
2018-07-24T00:08:10.683Z,996.51
2018-07-24T00:09:20.521Z,996.52
2018-07-24T00:10:30.603Z,996.5
2018-07-24T00:11:40.161Z,996.5
2018-07-24T00:12:50.046Z,996.47
2018-07-24T00:13:59.863Z,996.51
2018-07-24T00:15:09.947Z,996.51
2018-07-24T00:16:19.519Z,996.46
2018-07-24T00:17:29.601Z,996.43
2018-07-24T00:18:39.693Z,996.43
2018-07-24T00:19:49.780Z,996.42
2018-07-24T00:20:59.859Z,996.45
2018-07-24T00:22:09.408Z,996.45
2018-07-24T00:23:19.502Z,996.35
2018-07-24T00:24:29.656Z,996.4
2018-07-24T00:25:39.736Z,996.37
2018-07-24T00:26:49.559Z,996.36
2018-07-24T00:27:59.648Z,996.34
2018-07-24T00:29:09.736Z,996.3
2018-07-24T00:30:19.804Z,996.3
2018-07-24T00:31:29.604Z,996.29
2018-07-24T00:32:39.705Z,996.3
2018-07-24T00:33:49.787Z,996.29
2018-07-24T00:34:59.616Z,996.28
2018-07-24T00:36:09.971Z,996.33
2018-07-24T00:37:20.334Z,996.29
2018-07-24T00:38:30.182Z,996.23
2018-07-24T00:39:40.257Z,996.25
2018-07-24T00:40:50.083Z,996.29
2018-07-24T00:41:59.891Z,996.24
2018-07-24T00:43:09.706Z,996.21
2018-07-24T00:44:19.790Z,996.23
2018-07-24T00:45:29.872Z,996.21
2018-07-24T00:46:39.959Z,996.18
2018-07-24T00:47:50.033Z,996.17
2018-07-24T00:49:00.108Z,996.19
2018-07-24T00:50:09.662Z,996.18
2018-07-24T00:51:18.954Z,996.16
2018-07-24T00:52:29.034Z,996.18
2018-07-24T00:53:39.129Z,996.13
2018-07-24T00:54:49.187Z,996.17
2018-07-24T00:55:59.260Z,996.2
2018-07-24T00:57:09.342Z,996.16
2018-07-24T00:58:19.452Z,996.2
2018-07-24T00:59:29.570Z,996.2
2018-07-24T01:00:39.655Z,996.18
2018-07-24T01:01:49.462Z,996.14
2018-07-24T01:02:59.282Z,996.16
2018-07-24T01:04:09.387Z,996.17
2018-07-24T01:05:19.484Z,996.15
2018-07-24T01:06:29.552Z,996.12
2018-07-24T01:07:39.684Z,996.14
2018-07-24T01:08:49.756Z,996.16
2018-07-24T01:09:59.564Z,996.16
2018-07-24T01:11:09.660Z,996.14
2018-07-24T01:12:19.778Z,996.07
2018-07-24T01:13:29.842Z,996.1
2018-07-24T01:14:39.931Z,996.04
2018-07-24T01:15:49.997Z,996.12
2018-07-24T01:16:59.820Z,996.06
2018-07-24T01:18:09.890Z,996.06
2018-07-24T01:19:19.968Z,996.03
2018-07-24T01:20:30.043Z,996.05
2018-07-24T01:21:40.125Z,996.03
2018-07-24T01:22:50.201Z,996.04
2018-07-24T01:24:00.013Z,996.07
2018-07-24T01:25:10.080Z,996.03
2018-07-24T01:26:20.145Z,996.01
2018-07-24T01:27:29.959Z,996
2018-07-24T01:28:40.080Z,996.06
2018-07-24T01:29:50.188Z,996.01
2018-07-24T01:30:59.742Z,995.99
2018-07-24T01:32:09.811Z,995.95
2018-07-24T01:33:19.885Z,995.99
2018-07-24T01:34:29.948Z,995.99
2018-07-24T01:35:40.025Z,996
2018-07-24T01:36:49.854Z,996.05
2018-07-24T01:37:59.677Z,996
2018-07-24T01:39:09.506Z,996.02
2018-07-24T01:40:19.311Z,995.98
2018-07-24T01:41:29.395Z,996
2018-07-24T01:42:39.480Z,996.03
2018-07-24T01:43:49.554Z,996.01
2018-07-24T01:44:59.622Z,996.03
2018-07-24T01:46:09.694Z,995.96
2018-07-24T01:47:19.772Z,996.03
2018-07-24T01:48:29.853Z,996.06
2018-07-24T01:49:39.960Z,996.06
2018-07-24T01:50:50.280Z,996.04
2018-07-24T01:52:00.103Z,996.02
2018-07-24T01:53:10.182Z,996.06
2018-07-24T01:54:19.998Z,996.05
2018-07-24T01:55:29.823Z,996.03
2018-07-24T01:56:39.881Z,996.03
2018-07-24T01:57:49.713Z,996.01
2018-07-24T01:58:59.529Z,996.02
2018-07-24T02:00:09.093Z,996
2018-07-24T02:01:19.153Z,996.03
2018-07-24T02:02:28.975Z,996.02
2018-07-24T02:03:38.787Z,996.04
2018-07-24T02:04:48.862Z,996.03
2018-07-24T02:05:58.959Z,996
2018-07-24T02:07:08.764Z,996.01
2018-07-24T02:08:18.846Z,995.96
2018-07-24T02:09:28.979Z,995.97
2018-07-24T02:10:39.052Z,996.01
2018-07-24T02:11:49.140Z,995.99
2018-07-24T02:12:59.233Z,995.97
2018-07-24T02:14:09.056Z,996.01
2018-07-24T02:15:19.160Z,996
2018-07-24T02:16:29.235Z,995.98
2018-07-24T02:17:39.317Z,995.98
2018-07-24T02:18:49.378Z,996.01
2018-07-24T02:19:59.464Z,995.98
2018-07-24T02:21:09.540Z,996
2018-07-24T02:22:19.628Z,996.02
2018-07-24T02:23:29.698Z,996
2018-07-24T02:24:39.764Z,996.03
2018-07-24T02:25:49.560Z,996
2018-07-24T02:26:59.656Z,996.01
2018-07-24T02:28:09.747Z,996.03
2018-07-24T02:29:19.818Z,996.06
2018-07-24T02:30:29.931Z,996.02
2018-07-24T02:31:40.065Z,996
2018-07-24T02:32:50.128Z,996.03
2018-07-24T02:34:00.218Z,996.04
2018-07-24T02:35:10.774Z,996.03
2018-07-24T02:36:20.860Z,996.08
2018-07-24T02:37:30.922Z,996.02
2018-07-24T02:38:41.002Z,996
2018-07-24T02:39:51.102Z,995.99
2018-07-24T02:41:01.173Z,996.03
2018-07-24T02:42:11.251Z,996.06
2018-07-24T02:43:21.070Z,996.06
2018-07-24T02:44:31.147Z,996.05
2018-07-24T02:45:41.241Z,996.08
2018-07-24T02:46:51.062Z,996.09
2018-07-24T02:48:00.877Z,996.14
2018-07-24T02:49:10.976Z,996.1
2018-07-24T02:50:20.806Z,996.09
2018-07-24T02:51:30.889Z,996.1
2018-07-24T02:52:40.714Z,996.1
2018-07-24T02:53:50.547Z,996.1
2018-07-24T02:55:00.638Z,996.13
2018-07-24T02:56:10.725Z,996.08
2018-07-24T02:57:20.806Z,996.12
2018-07-24T02:58:30.352Z,996.12
2018-07-24T02:59:40.427Z,996.12
2018-07-24T03:00:50.511Z,996.12
2018-07-24T03:02:00.332Z,996.1
2018-07-24T03:34:35.189Z,996.17
2018-07-24T03:35:44.980Z,996.24
2018-07-24T03:36:55.052Z,996.23
2018-07-24T03:38:05.127Z,996.26
2018-07-24T03:39:15.194Z,996.27
2018-07-24T03:40:25.036Z,996.25
2018-07-24T03:41:34.838Z,996.24
2018-07-24T03:42:44.932Z,996.24
2018-07-24T03:43:55.021Z,996.28
2018-07-24T03:45:05.138Z,996.32
2018-07-24T03:46:15.445Z,996.3
2018-07-24T03:47:25.258Z,996.38
2018-07-24T03:48:35.334Z,996.36
2018-07-24T03:49:45.189Z,996.36
2018-07-24T03:50:55.273Z,996.39
2018-07-24T03:52:05.350Z,996.38
2018-07-24T03:53:15.426Z,996.46
2018-07-24T03:54:25.502Z,996.42
2018-07-24T03:55:35.316Z,996.48
2018-07-24T03:56:45.395Z,996.49
2018-07-24T03:57:55.546Z,996.5
2018-07-24T03:59:05.984Z,996.5
2018-07-24T04:00:16.069Z,996.51
2018-07-24T04:01:26.152Z,996.52
2018-07-24T04:02:35.962Z,996.51
2018-07-24T04:03:45.787Z,996.51
2018-07-24T04:04:55.612Z,996.54
2018-07-24T04:06:05.427Z,996.55
2018-07-24T04:07:15.011Z,996.59
2018-07-24T04:08:24.824Z,996.54
2018-07-24T04:09:34.912Z,996.57
2018-07-24T04:10:44.720Z,996.6
2018-07-24T04:11:54.539Z,996.52
2018-07-24T04:13:04.360Z,996.53
2018-07-24T04:14:14.420Z,996.57
2018-07-24T04:15:24.537Z,996.59
2018-07-24T04:16:34.624Z,996.56
2018-07-24T04:17:44.690Z,996.53
2018-07-24T04:18:54.496Z,996.52
2018-07-24T04:20:04.582Z,996.49
2018-07-24T04:21:14.406Z,996.56
2018-07-24T04:22:24.497Z,996.56
2018-07-24T04:23:34.581Z,996.52
2018-07-24T04:24:44.710Z,996.57
2018-07-24T04:25:54.780Z,996.58
2018-07-24T04:27:04.593Z,996.57
2018-07-24T04:28:14.676Z,996.84
2018-07-24T04:29:24.753Z,996.96
2018-07-24T04:30:34.841Z,996.82
2018-07-24T04:31:45.203Z,996.87
2018-07-24T04:32:55.519Z,996.89
2018-07-24T04:34:05.606Z,996.79
2018-07-24T04:35:15.679Z,996.82
2018-07-24T04:36:25.777Z,996.74
2018-07-24T04:37:35.869Z,996.77
2018-07-24T04:38:45.671Z,996.77
2018-07-24T04:39:55.863Z,996.74
2018-07-24T04:41:06.275Z,996.72
2018-07-24T04:42:16.343Z,996.77
2018-07-24T04:43:26.474Z,996.72
2018-07-24T04:44:36.037Z,996.76
2018-07-24T04:45:46.126Z,996.81
2018-07-24T04:46:55.949Z,996.85
2018-07-24T04:48:06.015Z,996.84
2018-07-24T04:49:16.155Z,996.66
2018-07-24T04:50:25.705Z,996.66
2018-07-24T04:51:35.801Z,996.64
2018-07-24T04:52:45.361Z,996.72
2018-07-24T04:53:55.446Z,996.73
2018-07-24T04:55:05.556Z,996.73
2018-07-24T04:56:15.651Z,996.83
2018-07-24T04:57:25.455Z,997.07
2018-07-24T04:58:34.995Z,997.07
2018-07-24T04:59:45.067Z,997.07
2018-07-24T05:00:54.883Z,997.07
2018-07-24T05:02:04.963Z,997.05
2018-07-24T05:03:14.859Z,997
2018-07-24T05:04:25.260Z,996.96
2018-07-24T05:05:35.347Z,996.95
2018-07-24T05:06:45.427Z,996.98
2018-07-24T05:07:55.254Z,996.88
2018-07-24T05:09:05.343Z,996.86
2018-07-24T05:10:15.450Z,996.8
2018-07-24T05:11:25.486Z,996.82
2018-07-24T05:12:35.350Z,996.81
2018-07-24T05:13:44.918Z,996.84
2018-07-24T05:14:54.745Z,996.87
2018-07-24T05:16:04.556Z,997.12
2018-07-24T05:17:14.917Z,997.36
2018-07-24T05:18:24.209Z,997.28
2018-07-24T05:19:34.017Z,997.34
2018-07-24T05:20:44.136Z,997.37
2018-07-24T05:21:54.215Z,997.2
2018-07-24T05:23:04.043Z,997.24
2018-07-24T05:24:13.907Z,997.31
2018-07-24T05:25:24.010Z,997.28
2018-07-24T05:26:33.829Z,997.23
2018-07-24T05:27:43.926Z,997.25
2018-07-24T05:28:54.005Z,997.26
2018-07-24T05:30:04.096Z,997.26
2018-07-24T05:31:14.168Z,997.25
2018-07-24T05:32:24.271Z,996.99
2018-07-24T05:33:34.352Z,996.9
2018-07-24T05:34:44.428Z,996.92
2018-07-24T05:35:54.500Z,996.92
2018-07-24T05:37:04.606Z,996.8
2018-07-24T05:38:14.705Z,996.9
2018-07-24T05:39:24.779Z,996.89
2018-07-24T05:40:34.868Z,996.91
2018-07-24T05:41:44.955Z,996.93
2018-07-24T05:42:55.040Z,996.97
2018-07-24T05:44:05.106Z,997.03
2018-07-24T05:45:15.179Z,997.06
2018-07-24T05:46:25.302Z,997.08
2018-07-24T05:47:35.124Z,997.05
2018-07-24T05:48:45.209Z,997.21
2018-07-24T05:49:55.182Z,997.16
2018-07-24T05:51:05.317Z,997.19
2018-07-24T05:52:15.146Z,997.19
2018-07-24T05:53:25.030Z,996.9
2018-07-24T05:54:35.109Z,996.88
2018-07-24T05:55:45.204Z,996.87
2018-07-24T05:56:55.329Z,996.94
2018-07-24T05:58:05.400Z,996.93
2018-07-24T05:59:15.487Z,997.04
2018-07-24T06:00:25.315Z,996.99
2018-07-24T06:01:35.163Z,997.01
2018-07-24T06:02:45.246Z,997.04
2018-07-24T06:03:55.062Z,997.13
2018-07-24T06:05:04.884Z,997.13
2018-07-24T06:06:14.980Z,997.15
2018-07-24T06:07:24.817Z,997.15
2018-07-24T06:08:35.011Z,997.18
2018-07-24T06:09:45.093Z,997.21
2018-07-24T06:10:55.176Z,997.18
2018-07-24T06:12:05.275Z,997.17
2018-07-24T06:13:15.379Z,997.14
2018-07-24T06:14:25.649Z,997.13
2018-07-24T06:15:36.057Z,997.09
2018-07-24T06:16:45.946Z,997
2018-07-24T06:17:56.466Z,996.87
2018-07-24T06:19:06.300Z,996.86
2018-07-24T06:20:16.411Z,996.9
2018-07-24T06:21:26.505Z,996.93
2018-07-24T06:22:36.629Z,996.91
2018-07-24T06:23:46.733Z,996.93
2018-07-24T06:24:56.821Z,996.93
2018-07-24T06:26:06.647Z,997
2018-07-24T06:27:16.730Z,997.06
2018-07-24T06:28:26.832Z,997.06
2018-07-24T06:29:36.960Z,997.07
2018-07-24T06:30:47.069Z,997.06
2018-07-24T06:31:57.160Z,997.09
2018-07-24T06:33:07.264Z,997.11
2018-07-24T06:34:17.399Z,997.08
2018-07-24T06:35:27.210Z,997.03
2018-07-24T06:36:37.032Z,997.02
2018-07-24T06:37:47.132Z,997
2018-07-24T06:38:57.201Z,997.01
2018-07-24T06:40:07.289Z,997.05
2018-07-24T06:41:17.367Z,997.06
2018-07-24T06:42:27.182Z,997.1
2018-07-24T06:43:37.264Z,997.08
2018-07-24T06:44:47.357Z,997.13
2018-07-24T06:45:57.246Z,997.04
2018-07-24T06:47:07.091Z,997.1
2018-07-24T06:48:17.164Z,997.03
2018-07-24T06:49:27.265Z,997.06
2018-07-24T06:50:37.362Z,996.96
2018-07-24T06:51:47.548Z,996.95
2018-07-24T06:52:57.969Z,996.93
2018-07-24T06:54:08.067Z,996.9
2018-07-24T06:55:18.171Z,996.91
2018-07-24T06:56:28.286Z,996.98
2018-07-24T06:57:38.678Z,996.95
2018-07-24T06:58:48.795Z,996.91
2018-07-24T06:59:58.646Z,996.86
2018-07-24T07:01:08.814Z,996.88
2018-07-24T07:02:18.599Z,996.91
2018-07-24T07:03:28.759Z,996.89
2018-07-24T07:04:38.999Z,996.87
2018-07-24T07:05:49.123Z,996.89
2018-07-24T07:06:58.949Z,996.81
2018-07-24T07:08:09.063Z,996.8
2018-07-24T07:09:19.129Z,996.8
2018-07-24T07:10:29.237Z,996.79
2018-07-24T07:11:39.343Z,996.73
2018-07-24T07:12:49.428Z,996.79
2018-07-24T07:13:59.298Z,996.7
2018-07-24T07:15:09.972Z,996.71
2018-07-24T07:16:20.128Z,996.71
2018-07-24T07:17:30.403Z,996.72
2018-07-24T07:18:40.262Z,996.75
2018-07-24T07:19:50.079Z,996.71
2018-07-24T07:21:00.175Z,996.72
2018-07-24T07:22:10.266Z,996.71
2018-07-24T07:23:20.342Z,996.73
2018-07-24T07:24:30.607Z,996.68
2018-07-24T07:25:40.680Z,996.7
2018-07-24T07:26:50.766Z,996.66
2018-07-24T07:28:00.362Z,996.66
2018-07-24T07:29:10.486Z,996.67
2018-07-24T07:30:20.937Z,996.69
2018-07-24T07:31:31.032Z,996.67
2018-07-24T07:32:41.238Z,996.69
2018-07-24T07:33:51.346Z,996.75
2018-07-24T07:35:01.172Z,996.66
2018-07-24T07:36:11.240Z,996.7
2018-07-24T07:37:21.343Z,996.66
2018-07-24T07:38:31.431Z,996.65
2018-07-24T07:39:41.242Z,996.65
2018-07-24T07:40:51.331Z,996.63
2018-07-24T07:42:01.407Z,996.62
2018-07-24T07:43:11.508Z,996.62
2018-07-24T07:44:21.658Z,996.58
2018-07-24T07:45:31.484Z,996.58
2018-07-24T07:46:41.310Z,996.61
2018-07-24T07:47:51.380Z,996.63
2018-07-24T07:49:00.954Z,996.62
2018-07-24T07:50:11.040Z,996.61
2018-07-24T07:51:20.866Z,996.64
2018-07-24T07:52:31.316Z,996.59
2018-07-24T07:53:41.763Z,996.64
2018-07-24T07:54:51.577Z,996.6
2018-07-24T07:56:01.673Z,996.63
2018-07-24T07:57:11.503Z,996.58
2018-07-24T07:58:21.585Z,996.57
2018-07-24T07:59:31.740Z,996.6
2018-07-24T08:00:41.579Z,996.53
2018-07-24T08:01:51.673Z,996.62
2018-07-24T08:03:01.228Z,996.58
2018-07-24T08:04:11.118Z,996.57
2018-07-24T08:05:21.499Z,996.52
2018-07-24T08:06:31.583Z,996.56
2018-07-24T08:07:41.665Z,996.55
2018-07-24T08:08:51.760Z,996.52
2018-07-24T08:10:01.595Z,996.59
2018-07-24T08:11:11.679Z,996.6
2018-07-24T08:12:21.811Z,996.62
2018-07-24T08:13:32.135Z,996.52
2018-07-24T08:14:42.226Z,996.64
2018-07-24T08:15:52.044Z,996.55
2018-07-24T08:17:01.918Z,996.57
2018-07-24T08:18:11.991Z,996.64
2018-07-24T08:19:21.811Z,996.59
2018-07-24T08:20:31.895Z,996.6
2018-07-24T08:21:41.719Z,996.6
2018-07-24T08:22:51.803Z,996.59
2018-07-24T08:24:01.904Z,996.56
2018-07-24T08:25:11.998Z,996.6
2018-07-24T08:26:22.074Z,996.56
2018-07-24T08:27:32.177Z,996.59
2018-07-24T08:28:42.329Z,996.54
2018-07-24T08:29:52.423Z,996.6
2018-07-24T08:31:02.524Z,996.57
2018-07-24T08:32:12.351Z,996.54
2018-07-24T08:33:22.188Z,996.5
2018-07-24T08:34:32.468Z,996.5
2018-07-24T08:35:42.651Z,996.52
2018-07-24T08:36:52.716Z,996.51
2018-07-24T08:38:02.802Z,996.47
2018-07-24T08:39:12.627Z,996.44
2018-07-24T08:40:22.458Z,996.51
2018-07-24T08:41:32.295Z,996.49
2018-07-24T08:42:41.887Z,996.51
2018-07-24T08:43:51.984Z,996.47
2018-07-24T08:45:02.067Z,996.45
2018-07-24T08:46:11.919Z,996.41
2018-07-24T08:47:21.995Z,996.4
2018-07-24T08:48:31.800Z,996.4
2018-07-24T08:49:41.621Z,996.35
2018-07-24T08:50:51.708Z,996.36
2018-07-24T08:52:01.572Z,996.43
2018-07-24T08:53:11.607Z,996.39
2018-07-24T08:54:23.489Z,996.34
2018-07-24T08:55:35.305Z,996.35
2018-07-24T08:56:47.030Z,996.34
2018-07-24T08:57:57.172Z,996.35
2018-07-24T08:59:07.259Z,996.36
2018-07-24T09:00:17.348Z,996.35
2018-07-24T09:01:27.439Z,996.36
2018-07-24T09:02:37.551Z,996.35
2018-07-24T09:03:47.693Z,996.35
2018-07-24T09:04:57.991Z,996.24
2018-07-24T09:06:08.086Z,996.31
2018-07-24T09:07:18.180Z,996.3
2018-07-24T09:08:28.267Z,996.28
2018-07-24T09:09:38.369Z,996.27
2018-07-24T09:10:48.467Z,996.34
2018-07-24T09:11:58.526Z,996.33
2018-07-24T09:13:08.613Z,996.33
2018-07-24T09:14:18.694Z,996.32
2018-07-24T09:15:28.590Z,996.27
2018-07-24T09:16:38.983Z,996.26
2018-07-24T09:17:48.820Z,996.25
2018-07-24T09:18:58.642Z,996.3
2018-07-24T09:20:08.738Z,996.21
2018-07-24T09:21:18.808Z,996.28
2018-07-24T09:22:28.658Z,996.28
2018-07-24T09:23:38.753Z,996.21
2018-07-24T09:24:48.857Z,996.22
2018-07-24T09:25:58.674Z,996.2
2018-07-24T09:27:08.695Z,996.17
2018-07-24T09:28:18.360Z,996.23
2018-07-24T09:29:28.187Z,996.23
2018-07-24T09:30:38.280Z,996.24
2018-07-24T09:31:48.373Z,996.21
2018-07-24T09:32:58.455Z,996.24
2018-07-24T09:34:08.538Z,996.25
2018-07-24T09:35:18.627Z,996.22
2018-07-24T09:36:28.742Z,996.23
2018-07-24T09:37:38.824Z,996.24
2018-07-24T09:38:48.897Z,996.22
2018-07-24T09:39:58.974Z,996.22
2018-07-24T09:41:09.081Z,996.16
2018-07-24T09:42:18.706Z,996.2
2018-07-24T09:43:28.263Z,996.2
2018-07-24T09:44:38.371Z,996.2
2018-07-24T09:45:48.457Z,996.24
2018-07-24T09:46:58.737Z,996.18
2018-07-24T09:48:08.544Z,996.13
2018-07-24T09:49:18.386Z,996.18
2018-07-24T09:50:28.528Z,996.17
2018-07-24T09:51:38.945Z,996.1
2018-07-24T09:52:49.043Z,996.09
2018-07-24T09:53:58.880Z,996.1
2018-07-24T09:55:08.964Z,996.16
2018-07-24T09:56:18.828Z,996.17
2018-07-24T09:57:29.215Z,996.18
2018-07-24T09:58:39.295Z,996.15
2018-07-24T09:59:49.131Z,996.1
2018-07-24T10:00:59.212Z,996.08
2018-07-24T10:02:09.365Z,996.15
2018-07-24T10:03:19.455Z,996.09
2018-07-24T10:04:29.543Z,996.12
2018-07-24T10:05:39.380Z,996.1
2018-07-24T10:06:49.467Z,996.16
2018-07-24T10:07:59.540Z,996.12
2018-07-24T10:09:09.626Z,996.12
2018-07-24T10:10:19.457Z,996.07
2018-07-24T10:11:29.585Z,996.07
2018-07-24T10:12:39.721Z,996.01
2018-07-24T10:13:49.972Z,995.97
2018-07-24T10:15:00.078Z,996.01
2018-07-24T10:16:10.190Z,996.09
2018-07-24T10:17:20.258Z,996.07
2018-07-24T10:18:30.088Z,995.98
2018-07-24T10:19:40.191Z,996.01
2018-07-24T10:20:50.290Z,996.11
2018-07-24T10:22:00.135Z,995.98
2018-07-24T10:23:10.317Z,995.98
2018-07-24T10:24:20.471Z,995.98
2018-07-24T10:25:30.915Z,996.05
2018-07-24T10:26:41.309Z,996.01
2018-07-24T10:27:51.155Z,996.07
2018-07-24T10:29:01.249Z,996.05
2018-07-24T10:30:11.327Z,996.05
2018-07-24T10:31:21.329Z,996.02
2018-07-24T10:32:31.415Z,996.05
2018-07-24T10:33:41.241Z,996
2018-07-24T10:34:51.068Z,995.96
2018-07-24T10:36:01.140Z,995.94
2018-07-24T10:37:11.236Z,995.97
2018-07-24T10:38:21.068Z,995.97
2018-07-24T10:39:30.909Z,996
2018-07-24T10:40:40.721Z,995.94
2018-07-24T10:41:50.828Z,995.91
2018-07-24T10:43:00.950Z,995.86
2018-07-24T10:44:11.512Z,995.83
2018-07-24T10:45:21.641Z,995.82
2018-07-24T10:46:31.733Z,995.82
2018-07-24T10:47:41.824Z,995.84
2018-07-24T10:48:51.665Z,995.84
2018-07-24T10:50:01.487Z,995.84
2018-07-24T10:51:11.314Z,995.92
2018-07-24T10:52:21.400Z,995.85
2018-07-24T10:53:30.975Z,995.84
2018-07-24T10:54:40.785Z,995.8
2018-07-24T10:55:50.623Z,995.79
2018-07-24T10:57:00.718Z,995.79
2018-07-24T10:58:10.798Z,995.67
2018-07-24T10:59:20.622Z,995.66
2018-07-24T11:00:30.722Z,995.68
2018-07-24T11:01:40.815Z,995.71
2018-07-24T11:02:50.920Z,995.72
2018-07-24T11:04:01.017Z,995.7
2018-07-24T11:05:11.143Z,995.73
2018-07-24T11:06:22.540Z,995.66
2018-07-24T11:07:32.086Z,995.63
2018-07-24T11:08:42.169Z,995.63
2018-07-24T11:09:52.250Z,995.57
2018-07-24T11:11:01.863Z,995.57
2018-07-24T11:12:12.206Z,995.62
2018-07-24T11:13:22.034Z,995.64
2018-07-24T11:14:32.127Z,995.68
2018-07-24T11:15:41.965Z,995.62
2018-07-24T11:16:51.797Z,995.62
2018-07-24T11:18:01.933Z,995.53
2018-07-24T11:19:11.756Z,995.55
2018-07-24T11:20:21.643Z,995.52
2018-07-24T11:21:31.724Z,995.54
2018-07-24T11:22:42.140Z,995.49
2018-07-24T11:23:52.916Z,995.48
2018-07-24T11:25:03.033Z,995.51
2018-07-24T11:26:12.873Z,995.54
2018-07-24T11:27:22.989Z,995.51
2018-07-24T11:28:33.564Z,995.57
2018-07-24T11:29:43.706Z,995.56
2018-07-24T11:30:53.811Z,995.52
2018-07-24T11:32:03.657Z,995.55
2018-07-24T11:33:13.494Z,995.47
2018-07-24T11:34:23.898Z,995.48
2018-07-24T11:35:34.122Z,995.38
2018-07-24T11:36:44.917Z,995.48
2018-07-24T11:37:55.039Z,995.33
2018-07-24T11:39:05.213Z,995.35
2018-07-24T11:40:15.305Z,995.29
2018-07-24T11:41:25.116Z,995.28
2018-07-24T11:42:34.677Z,995.28
2018-07-24T11:43:44.511Z,995.33
2018-07-24T11:44:54.311Z,995.24
2018-07-24T11:46:04.154Z,995.38
2018-07-24T11:47:14.026Z,995.36
2018-07-24T11:48:24.128Z,995.47
2018-07-24T11:49:33.954Z,995.33
2018-07-24T11:50:43.515Z,995.34
2018-07-24T11:51:53.715Z,995.4
2018-07-24T11:53:03.945Z,995.34
2018-07-24T11:54:14.053Z,995.31
2018-07-24T11:55:24.152Z,995.28
2018-07-24T11:56:34.230Z,995.31
2018-07-24T11:57:44.367Z,995.3
2018-07-24T11:58:54.682Z,995.17
2018-07-24T12:00:04.507Z,995.19
2018-07-24T12:01:14.592Z,995.25
2018-07-24T12:02:24.667Z,995.24
2018-07-24T12:03:34.779Z,995.19
2018-07-24T12:04:44.914Z,995.16
2018-07-24T12:05:55.314Z,995.12
2018-07-24T12:07:05.421Z,995.05
2018-07-24T12:08:15.507Z,995.03
2018-07-24T12:09:25.601Z,995.02
2018-07-24T12:10:35.924Z,995.01
2018-07-24T12:11:46.025Z,995.01
2018-07-24T12:12:56.164Z,995.03
2018-07-24T12:14:05.725Z,995
2018-07-24T12:15:15.883Z,995.04
2018-07-24T12:16:26.065Z,995.02
2018-07-24T12:17:35.940Z,995.02
2018-07-24T12:18:46.043Z,995.08
2018-07-24T12:19:56.120Z,995.08
2018-07-24T12:21:05.950Z,994.97
2018-07-24T12:22:16.085Z,994.95
2018-07-24T12:23:26.411Z,994.83
2018-07-24T12:24:36.552Z,994.93
2018-07-24T12:25:46.374Z,994.92
2018-07-24T12:26:56.471Z,994.87
2018-07-24T12:28:06.792Z,994.91
2018-07-24T12:29:16.886Z,994.88
2018-07-24T12:30:26.736Z,994.91
2018-07-24T12:31:36.821Z,994.86
2018-07-24T12:32:46.639Z,994.77
2018-07-24T12:33:56.803Z,994.81
2018-07-24T12:35:06.898Z,994.9
2018-07-24T12:36:16.755Z,994.86
2018-07-24T12:37:26.553Z,994.86
2018-07-24T12:38:36.638Z,994.86
2018-07-24T12:39:46.729Z,994.83
2018-07-24T12:40:56.559Z,994.79
2018-07-24T12:42:06.718Z,994.77
2018-07-24T12:43:16.959Z,994.75
2018-07-24T12:44:27.175Z,994.72
2018-07-24T12:45:37.267Z,994.74
2018-07-24T12:46:47.161Z,994.72
2018-07-24T12:47:57.248Z,994.71
2018-07-24T12:49:07.333Z,994.67
2018-07-24T12:50:17.505Z,994.72
2018-07-24T12:51:27.612Z,994.74
2018-07-24T12:52:37.694Z,994.74
2018-07-24T12:53:47.527Z,994.71
2018-07-24T12:54:57.630Z,994.74
2018-07-24T12:56:07.730Z,994.65
2018-07-24T12:57:17.815Z,994.59
2018-07-24T12:58:27.897Z,994.6
2018-07-24T12:59:37.720Z,994.57
2018-07-24T13:00:47.547Z,994.52
2018-07-24T13:01:57.692Z,994.53
2018-07-24T13:03:07.499Z,994.57
2018-07-24T13:04:17.610Z,994.55
2018-07-24T13:05:27.752Z,994.56
2018-07-24T13:06:37.871Z,994.5
2018-07-24T13:07:47.749Z,994.57
2018-07-24T13:08:57.851Z,994.5
2018-07-24T13:10:07.980Z,994.46
2018-07-24T13:11:18.315Z,994.51
2018-07-24T13:12:28.472Z,994.43
2018-07-24T13:13:38.571Z,994.46
2018-07-24T13:14:48.664Z,994.5
2018-07-24T13:15:58.749Z,994.47
2018-07-24T13:17:08.900Z,994.47
2018-07-24T13:18:19.003Z,994.48
2018-07-24T13:19:28.627Z,994.45
2018-07-24T13:20:39.073Z,994.49
2018-07-24T13:21:49.167Z,994.43
2018-07-24T13:22:58.993Z,994.42
2018-07-24T13:24:08.829Z,994.37
2018-07-24T13:25:18.681Z,994.44
2018-07-24T13:26:28.773Z,994.39
2018-07-24T13:27:38.872Z,994.31
2018-07-24T13:28:49.007Z,994.4
2018-07-24T13:29:59.112Z,994.33
2018-07-24T13:31:08.990Z,994.34
2018-07-24T13:32:18.811Z,994.36
2018-07-24T13:33:28.653Z,994.35
2018-07-24T13:34:38.465Z,994.39
2018-07-24T13:35:47.767Z,994.38
2018-07-24T13:36:57.942Z,994.34
2018-07-24T13:38:08.035Z,994.37
2018-07-24T13:39:17.876Z,994.29
2018-07-24T13:40:27.976Z,994.34
2018-07-24T13:41:38.056Z,994.29
2018-07-24T13:42:47.887Z,994.23
2018-07-24T13:43:57.979Z,994.26
2018-07-24T13:45:08.098Z,994.28
2018-07-24T13:46:18.208Z,994.28
2018-07-24T13:47:28.310Z,994.26
2018-07-24T13:48:38.391Z,994.24
2018-07-24T13:49:48.469Z,994.15
2018-07-24T13:50:58.576Z,994.2
2018-07-24T13:52:08.722Z,994.17
2018-07-24T13:53:19.102Z,994.19
2018-07-24T13:54:29.190Z,994.23
2018-07-24T13:55:39.269Z,994.19
2018-07-24T13:56:49.164Z,994.28
2018-07-24T13:57:58.985Z,994.26
2018-07-24T13:59:09.118Z,994.24
2018-07-24T14:00:19.196Z,994.24
2018-07-24T14:01:29.270Z,994.15
2018-07-24T14:02:39.362Z,994.17
2018-07-24T14:03:49.457Z,994.12
2018-07-24T14:04:59.550Z,994.19
2018-07-24T14:06:09.712Z,994.21
2018-07-24T14:07:19.798Z,994.13
2018-07-24T14:08:30.004Z,994.12
2018-07-24T14:09:40.219Z,994.14
2018-07-24T14:10:50.085Z,994.05
2018-07-24T14:11:59.931Z,994.09
2018-07-24T14:13:09.765Z,994.03
2018-07-24T14:14:19.649Z,994.11
2018-07-24T14:15:29.762Z,994.13
2018-07-24T14:16:39.590Z,994.07
2018-07-24T14:17:49.177Z,994.08
2018-07-24T14:18:59.281Z,994.08
2018-07-24T14:20:09.345Z,994.03
2018-07-24T14:21:19.430Z,994.11
2018-07-24T14:22:29.299Z,994.04
2018-07-24T14:23:39.533Z,994.02
2018-07-24T14:24:49.677Z,994.02
2018-07-24T14:25:59.758Z,994.04
2018-07-24T14:27:09.846Z,994.07
2018-07-24T14:28:19.922Z,994.04
2018-07-24T14:29:29.525Z,994.04
2018-07-24T14:30:39.346Z,994.02
2018-07-24T14:31:49.431Z,993.95
2018-07-24T14:32:59.523Z,994.02
2018-07-24T14:34:09.356Z,993.96
2018-07-24T14:35:19.422Z,993.98
2018-07-24T14:36:29.513Z,993.92
2018-07-24T14:37:39.609Z,993.95
2018-07-24T14:38:49.711Z,993.98
2018-07-24T14:39:59.536Z,993.95
2018-07-24T14:41:09.398Z,993.96
2018-07-24T14:42:19.470Z,993.96
2018-07-24T14:43:29.558Z,993.96
2018-07-24T14:44:39.386Z,993.94
2018-07-24T14:45:49.492Z,993.93
2018-07-24T14:46:59.565Z,993.9
2018-07-24T14:48:09.652Z,993.89
2018-07-24T14:49:19.733Z,993.89
2018-07-24T14:50:29.825Z,993.83
2018-07-24T14:51:39.922Z,993.85
2018-07-24T14:52:50.062Z,993.85
2018-07-24T14:54:00.163Z,993.84
2018-07-24T14:55:10.233Z,993.86
2018-07-24T14:56:20.322Z,993.82
2018-07-24T14:57:30.144Z,993.83
2018-07-24T14:58:40.351Z,993.84
2018-07-24T14:59:50.943Z,993.86
2018-07-24T15:01:01.027Z,993.92
2018-07-24T15:02:11.116Z,993.87
2018-07-24T15:03:20.962Z,993.89
2018-07-24T15:04:31.064Z,993.79
2018-07-24T15:05:41.326Z,993.81
2018-07-24T15:06:51.429Z,993.78
2018-07-24T15:08:01.275Z,993.81
2018-07-24T15:09:11.367Z,993.81